createdAt,value
2018-05-04T00:00:29.832Z,990.49
2018-05-04T00:01:29.820Z,990.48
2018-05-04T00:02:29.836Z,990.51
2018-05-04T00:03:29.818Z,990.47
2018-05-04T00:04:29.818Z,990.46
2018-05-04T00:05:29.818Z,990.46
2018-05-04T00:06:29.819Z,990.47
2018-05-04T00:07:29.817Z,990.43
2018-05-04T00:08:29.817Z,990.41
2018-05-04T00:09:29.818Z,990.45
2018-05-04T00:10:29.819Z,990.4
2018-05-04T00:11:29.816Z,990.44
2018-05-04T00:12:29.816Z,990.41
2018-05-04T00:13:29.818Z,990.42
2018-05-04T00:14:29.816Z,990.43
2018-05-04T00:15:29.815Z,990.38
2018-05-04T00:16:29.821Z,990.39
2018-05-04T00:17:29.815Z,990.42
2018-05-04T00:18:29.814Z,990.42
2018-05-04T00:19:29.819Z,990.4
2018-05-04T00:20:29.814Z,990.39
2018-05-04T00:21:29.818Z,990.42
2018-05-04T00:22:29.813Z,990.37
2018-05-04T00:23:29.814Z,990.37
2018-05-04T00:24:29.812Z,990.36
2018-05-04T00:25:29.812Z,990.29
2018-05-04T00:26:29.819Z,990.3
2018-05-04T00:27:29.812Z,990.27
2018-05-04T00:28:29.815Z,990.3
2018-05-04T00:29:29.811Z,990.36
2018-05-04T00:30:29.810Z,990.35
2018-05-04T00:31:29.810Z,990.34
2018-05-04T00:32:29.810Z,990.35
2018-05-04T00:33:29.809Z,990.34
2018-05-04T00:34:29.816Z,990.31
2018-05-04T00:35:29.816Z,990.32
2018-05-04T00:36:29.810Z,990.28
2018-05-04T00:37:29.812Z,990.33
2018-05-04T00:38:29.815Z,990.28
2018-05-04T00:39:29.811Z,990.23
2018-05-04T00:40:29.806Z,990.21
2018-05-04T00:41:29.806Z,990.15
2018-05-04T00:42:29.806Z,990.11
2018-05-04T00:43:29.804Z,990.06
2018-05-04T00:44:29.809Z,990.07
2018-05-04T00:45:29.805Z,990.03
2018-05-04T00:46:29.802Z,990.04
2018-05-04T00:47:29.803Z,990.04
2018-05-04T00:48:29.803Z,990.05
2018-05-04T00:49:29.802Z,990.09
2018-05-04T00:50:29.801Z,990.07
2018-05-04T00:51:29.799Z,990.12
2018-05-04T00:52:29.801Z,990.17
2018-05-04T00:53:29.798Z,990.18
2018-05-04T00:54:29.797Z,990.12
2018-05-04T00:55:29.799Z,990.17
2018-05-04T00:56:29.797Z,990.16
2018-05-04T00:57:29.798Z,990.19
2018-05-04T00:58:29.797Z,990.18
2018-05-04T00:59:29.795Z,990.18
2018-05-04T01:00:29.801Z,990.18
2018-05-04T01:01:29.799Z,990.18
2018-05-04T01:02:29.793Z,990.17
2018-05-04T01:03:29.798Z,990.18
2018-05-04T01:04:29.807Z,990.15
2018-05-04T01:05:29.793Z,990.14
2018-05-04T01:06:29.796Z,990.17
2018-05-04T01:07:29.790Z,990.14
2018-05-04T01:08:29.788Z,990.15
2018-05-04T01:09:29.788Z,990.17
2018-05-04T01:10:29.808Z,990.16
2018-05-04T01:11:29.788Z,990.19
2018-05-04T01:12:29.785Z,990.24
2018-05-04T01:13:29.785Z,990.23
2018-05-04T01:14:29.785Z,990.26
2018-05-04T01:15:29.783Z,990.33
2018-05-04T01:16:31.393Z,990.38
2018-05-04T01:17:29.781Z,990.35
2018-05-04T01:18:29.781Z,990.4
2018-05-04T01:19:29.788Z,990.4
2018-05-04T01:20:29.778Z,990.42
2018-05-04T01:21:29.778Z,990.42
2018-05-04T01:22:29.782Z,990.42
2018-05-04T01:23:29.779Z,990.44
2018-05-04T01:24:29.795Z,990.49
2018-05-04T01:25:29.780Z,990.46
2018-05-04T01:26:29.778Z,990.46
2018-05-04T01:27:29.783Z,990.5
2018-05-04T01:28:29.782Z,990.5
2018-05-04T01:29:29.771Z,990.48
2018-05-04T01:30:29.774Z,990.44
2018-05-04T01:31:29.783Z,990.4
2018-05-04T01:32:29.769Z,990.43
2018-05-04T01:33:29.767Z,990.4
2018-05-04T01:34:29.766Z,990.39
2018-05-04T01:35:29.765Z,990.37
2018-05-04T01:36:29.763Z,990.41
2018-05-04T01:37:29.764Z,990.44
2018-05-04T01:38:29.765Z,990.44
2018-05-04T01:39:29.764Z,990.47
2018-05-04T01:40:29.761Z,990.48
2018-05-04T01:41:29.760Z,990.51
2018-05-04T01:42:29.758Z,990.48
2018-05-04T01:43:29.758Z,990.53
2018-05-04T01:44:29.757Z,990.51
2018-05-04T01:45:29.756Z,990.49
2018-05-04T01:46:29.755Z,990.48
2018-05-04T01:47:29.755Z,990.44
2018-05-04T01:48:29.760Z,990.46
2018-05-04T01:49:29.762Z,990.48
2018-05-04T01:50:29.750Z,990.49
2018-05-04T01:51:29.750Z,990.52
2018-05-04T01:52:29.757Z,990.5
2018-05-04T01:53:29.747Z,990.53
2018-05-04T01:54:29.747Z,990.58
2018-05-04T01:55:29.746Z,990.6
2018-05-04T01:56:29.743Z,990.61
2018-05-04T01:57:29.742Z,990.63
2018-05-04T01:58:29.742Z,990.67
2018-05-04T01:59:29.739Z,990.67
2018-05-04T02:00:29.740Z,990.72
2018-05-04T02:01:29.740Z,990.72
2018-05-04T02:02:29.737Z,990.73
2018-05-04T02:03:29.736Z,990.72
2018-05-04T02:04:29.735Z,990.7
2018-05-04T02:05:29.734Z,990.72
2018-05-04T02:06:29.731Z,990.7
2018-05-04T02:07:29.731Z,990.75
2018-05-04T02:08:29.729Z,990.71
2018-05-04T02:09:29.728Z,990.75
2018-05-04T02:10:29.725Z,990.76
2018-05-04T02:11:29.733Z,990.75
2018-05-04T02:12:29.724Z,990.74
2018-05-04T02:13:29.723Z,990.7
2018-05-04T02:14:29.724Z,990.72
2018-05-04T02:15:29.725Z,990.64
2018-05-04T02:16:29.719Z,990.66
2018-05-04T02:17:29.716Z,990.63
2018-05-04T02:18:29.716Z,990.61
2018-05-04T02:19:29.714Z,990.55
2018-05-04T02:20:29.714Z,990.58
2018-05-04T02:21:29.711Z,990.56
2018-05-04T02:22:29.712Z,990.53
2018-05-04T02:23:29.710Z,990.54
2018-05-04T02:24:29.708Z,990.5
2018-05-04T02:25:29.707Z,990.51
2018-05-04T02:26:29.711Z,990.53
2018-05-04T02:27:29.705Z,990.48
2018-05-04T02:28:29.741Z,990.5
2018-05-04T02:29:29.701Z,990.47
2018-05-04T02:30:29.700Z,990.46
2018-05-04T02:31:29.703Z,990.43
2018-05-04T02:32:29.713Z,990.5
2018-05-04T02:33:29.697Z,990.49
2018-05-04T02:34:29.695Z,990.48
2018-05-04T02:35:29.692Z,990.52
2018-05-04T02:36:29.691Z,990.47
2018-05-04T02:37:29.690Z,990.48
2018-05-04T02:38:29.691Z,990.53
2018-05-04T02:39:29.686Z,990.53
2018-05-04T02:40:29.685Z,990.53
2018-05-04T02:41:29.689Z,990.57
2018-05-04T02:42:29.684Z,990.6
2018-05-04T02:43:29.695Z,990.59
2018-05-04T02:44:29.685Z,990.59
2018-05-04T02:45:29.692Z,990.64
2018-05-04T02:46:29.681Z,990.65
2018-05-04T02:47:29.690Z,990.72
2018-05-04T02:48:29.687Z,990.67
2018-05-04T02:49:29.687Z,990.67
2018-05-04T02:50:29.674Z,990.67
2018-05-04T02:51:29.670Z,990.67
2018-05-04T02:52:29.670Z,990.67
2018-05-04T02:53:29.669Z,990.73
2018-05-04T02:54:29.665Z,990.73
2018-05-04T02:55:29.710Z,990.76
2018-05-04T02:56:29.663Z,990.74
2018-05-04T02:57:29.661Z,990.76
2018-05-04T02:58:29.668Z,990.77
2018-05-04T02:59:29.658Z,990.73
2018-05-04T03:00:29.663Z,990.76
2018-05-04T03:01:29.654Z,990.73
2018-05-04T03:02:29.656Z,990.77
2018-05-04T03:03:29.651Z,990.76
2018-05-04T03:04:29.649Z,990.76
2018-05-04T03:05:29.651Z,990.75
2018-05-04T03:06:29.647Z,990.73
2018-05-04T03:07:29.650Z,990.69
2018-05-04T03:08:29.651Z,990.68
2018-05-04T03:09:29.647Z,990.68
2018-05-04T03:10:29.708Z,990.63
2018-05-04T03:11:29.638Z,990.62
2018-05-04T03:12:29.644Z,990.63
2018-05-04T03:13:29.633Z,990.61
2018-05-04T03:14:29.636Z,990.61
2018-05-04T03:15:29.636Z,990.66
2018-05-04T03:16:29.637Z,990.62
2018-05-04T03:17:29.641Z,990.64
2018-05-04T03:18:29.636Z,990.67
2018-05-04T03:19:29.628Z,990.67
2018-05-04T03:20:29.623Z,990.72
2018-05-04T03:21:29.622Z,990.69
2018-05-04T03:22:29.621Z,990.71
2018-05-04T03:23:29.619Z,990.71
2018-05-04T03:24:29.621Z,990.76
2018-05-04T03:25:29.619Z,990.76
2018-05-04T03:26:29.618Z,990.79
2018-05-04T03:27:29.611Z,990.82
2018-05-04T03:28:29.611Z,990.81
2018-05-04T03:29:29.609Z,990.85
2018-05-04T03:30:29.609Z,990.88
2018-05-04T03:31:29.609Z,990.9
2018-05-04T03:32:29.605Z,990.87
2018-05-04T03:33:29.604Z,990.86
2018-05-04T03:34:29.601Z,990.84
2018-05-04T03:35:29.600Z,990.88
2018-05-04T03:36:29.599Z,990.87
2018-05-04T03:37:29.596Z,990.89
2018-05-04T03:38:29.601Z,990.89
2018-05-04T03:39:29.599Z,990.89
2018-05-04T03:40:29.590Z,990.86
2018-05-04T03:41:29.590Z,990.88
2018-05-04T03:42:29.622Z,990.92
2018-05-04T03:43:29.585Z,990.92
2018-05-04T03:44:29.589Z,990.92
2018-05-04T03:45:29.586Z,990.95
2018-05-04T03:46:29.581Z,990.95
2018-05-04T03:47:29.582Z,990.9
2018-05-04T03:48:29.581Z,990.9
2018-05-04T03:49:29.579Z,990.89
2018-05-04T03:50:29.581Z,990.92
2018-05-04T03:51:29.574Z,990.89
2018-05-04T03:52:29.572Z,990.91
2018-05-04T03:53:29.570Z,990.9
2018-05-04T03:54:29.586Z,990.9
2018-05-04T03:55:29.572Z,990.9
2018-05-04T03:56:29.564Z,990.89
2018-05-04T03:57:29.563Z,990.96
2018-05-04T03:58:29.560Z,990.97
2018-05-04T03:59:29.560Z,990.99
2018-05-04T04:00:29.558Z,990.99
2018-05-04T04:01:29.563Z,990.98
2018-05-04T04:02:29.570Z,991.02
2018-05-04T04:03:29.554Z,991.07
2018-05-04T04:04:29.561Z,991.06
2018-05-04T04:05:29.553Z,991.05
2018-05-04T04:06:29.551Z,991.05
2018-05-04T04:07:29.562Z,991.06
2018-05-04T04:08:29.554Z,991
2018-05-04T04:09:29.541Z,991
2018-05-04T04:10:29.541Z,991.06
2018-05-04T04:11:29.539Z,991.04
2018-05-04T04:12:29.621Z,991.1
2018-05-04T04:13:29.539Z,991.1
2018-05-04T04:14:29.533Z,991.09
2018-05-04T04:15:29.534Z,991.09
2018-05-04T04:16:29.531Z,991.08
2018-05-04T04:17:29.779Z,991.08
2018-05-04T04:18:29.527Z,991.1
2018-05-04T04:19:29.526Z,990.99
2018-05-04T04:20:29.524Z,991.05
2018-05-04T04:21:29.523Z,991
2018-05-04T04:22:29.529Z,991.01
2018-05-04T04:23:29.520Z,991
2018-05-04T04:24:29.517Z,991.02
2018-05-04T04:25:29.515Z,991.06
2018-05-04T04:26:29.515Z,991.09
2018-05-04T04:27:29.514Z,991.1
2018-05-04T04:28:29.515Z,991.11
2018-05-04T04:29:29.508Z,991.14
2018-05-04T04:30:29.509Z,991.13
2018-05-04T04:31:29.506Z,991.15
2018-05-04T04:32:29.505Z,991.16
2018-05-04T04:33:29.504Z,991.19
2018-05-04T04:34:29.501Z,991.21
2018-05-04T04:35:29.501Z,991.18
2018-05-04T04:36:29.499Z,991.21
2018-05-04T04:37:29.501Z,991.2
2018-05-04T04:38:29.502Z,991.24
2018-05-04T04:39:29.495Z,991.23
2018-05-04T04:40:29.492Z,991.26
2018-05-04T04:41:29.491Z,991.24
2018-05-04T04:42:29.490Z,991.27
2018-05-04T04:43:29.490Z,991.27
2018-05-04T04:44:29.487Z,991.26
2018-05-04T04:45:29.589Z,991.24
2018-05-04T04:46:29.485Z,991.23
2018-05-04T04:47:29.485Z,991.21
2018-05-04T04:48:29.482Z,991.22
2018-05-04T04:49:29.478Z,991.2
2018-05-04T04:50:29.478Z,991.22
2018-05-04T04:51:29.477Z,991.25
2018-05-04T04:52:29.479Z,991.28
2018-05-04T04:53:29.477Z,991.27
2018-05-04T04:54:29.473Z,991.27
2018-05-04T04:55:29.474Z,991.27
2018-05-04T04:56:29.471Z,991.21
2018-05-04T04:57:29.469Z,991.24
2018-05-04T04:58:29.469Z,991.25
2018-05-04T04:59:29.468Z,991.23
2018-05-04T05:00:29.466Z,991.2
2018-05-04T05:01:29.465Z,991.19
2018-05-04T05:02:29.461Z,991.21
2018-05-04T05:03:29.462Z,991.23
2018-05-04T05:04:29.459Z,991.23
2018-05-04T05:05:29.462Z,991.22
2018-05-04T05:06:29.468Z,991.25
2018-05-04T05:07:29.455Z,991.27
2018-05-04T05:08:29.456Z,991.25
2018-05-04T05:09:29.453Z,991.28
2018-05-04T05:10:29.459Z,991.27
2018-05-04T05:11:29.451Z,991.25
2018-05-04T05:12:29.451Z,991.25
2018-05-04T05:13:29.502Z,991.3
2018-05-04T05:14:29.448Z,991.27
2018-05-04T05:15:29.448Z,991.24
2018-05-04T05:16:29.447Z,991.23
2018-05-04T05:17:29.695Z,991.29
2018-05-04T05:18:29.444Z,991.28
2018-05-04T05:19:29.444Z,991.29
2018-05-04T05:20:29.443Z,991.31
2018-05-04T05:21:29.441Z,991.28
2018-05-04T05:22:29.441Z,991.3
2018-05-04T05:23:29.439Z,991.29
2018-05-04T05:24:29.436Z,991.27
2018-05-04T05:25:29.436Z,991.29
2018-05-04T05:26:29.435Z,991.29
2018-05-04T05:27:29.433Z,991.29
2018-05-04T05:28:29.433Z,991.28
2018-05-04T05:29:29.492Z,991.25
2018-05-04T05:30:29.433Z,991.24
2018-05-04T05:31:29.430Z,991.29
2018-05-04T05:32:29.480Z,991.23
2018-05-04T05:33:29.428Z,991.23
2018-05-04T05:34:29.430Z,991.26
2018-05-04T05:35:29.493Z,991.29
2018-05-04T05:36:29.424Z,991.28
2018-05-04T05:37:29.435Z,991.26
2018-05-04T05:38:29.424Z,991.27
2018-05-04T05:39:29.425Z,991.32
2018-05-04T05:40:29.425Z,991.3
2018-05-04T05:41:29.424Z,991.29
2018-05-04T05:42:29.520Z,991.32
2018-05-04T05:43:29.423Z,991.33
2018-05-04T05:44:29.426Z,991.34
2018-05-04T05:45:29.437Z,991.34
2018-05-04T05:46:29.424Z,991.37
2018-05-04T05:47:32.627Z,991.28
2018-05-04T05:48:29.424Z,991.29
2018-05-04T05:49:29.431Z,991.33
2018-05-04T05:50:29.426Z,991.29
2018-05-04T05:51:29.428Z,991.33
2018-05-04T05:52:29.430Z,991.3
2018-05-04T05:53:29.435Z,991.27
2018-05-04T05:54:29.442Z,991.24
2018-05-04T05:55:29.432Z,991.28
2018-05-04T05:56:29.438Z,991.29
2018-05-04T05:57:29.440Z,991.31
2018-05-04T05:58:29.446Z,991.3
2018-05-04T05:59:29.435Z,991.31
2018-05-04T06:00:29.435Z,991.29
2018-05-04T06:01:29.437Z,991.3
2018-05-04T06:02:29.439Z,991.36
2018-05-04T06:03:29.438Z,991.33
2018-05-04T06:04:29.439Z,991.4
2018-05-04T06:05:29.440Z,991.32
2018-05-04T06:06:29.441Z,991.4
2018-05-04T06:07:29.441Z,991.41
2018-05-04T06:08:29.442Z,991.45
2018-05-04T06:09:29.442Z,991.46
2018-05-04T06:10:29.444Z,991.51
2018-05-04T06:11:29.442Z,991.52
2018-05-04T06:12:29.444Z,991.5
2018-05-04T06:13:29.445Z,991.52
2018-05-04T06:23:25.190Z,991.5
2018-05-04T06:24:25.179Z,991.56
2018-05-04T06:25:25.178Z,991.61
2018-05-04T06:26:25.174Z,991.52
2018-05-04T06:27:25.176Z,991.51
2018-05-04T06:28:25.171Z,991.5
2018-05-04T06:29:25.168Z,991.57
2018-05-04T06:30:25.170Z,991.57
2018-05-04T06:31:25.176Z,991.55
2018-05-04T06:32:25.167Z,991.57
2018-05-04T06:33:25.167Z,991.55
2018-05-04T06:34:25.169Z,991.58
2018-05-04T06:35:25.170Z,991.5
2018-05-04T06:36:25.178Z,991.48
2018-05-04T06:37:25.173Z,991.48
2018-05-04T06:38:25.172Z,991.49
2018-05-04T06:39:25.172Z,991.44
2018-05-04T06:40:25.173Z,991.41
2018-05-04T06:41:25.174Z,991.41
2018-05-04T06:42:25.185Z,991.4
2018-05-04T06:43:25.176Z,991.41
2018-05-04T06:44:25.179Z,991.4
2018-05-04T06:45:25.177Z,991.33
2018-05-04T06:46:25.178Z,991.42
2018-05-04T06:47:25.178Z,991.45
2018-05-04T06:48:25.179Z,991.47
2018-05-04T06:49:25.180Z,991.45
2018-05-04T06:50:25.181Z,991.42
2018-05-04T06:51:25.182Z,991.5
2018-05-04T06:52:25.282Z,991.53
2018-05-04T06:53:25.181Z,991.55
2018-05-04T06:54:25.201Z,991.62
2018-05-04T06:55:25.184Z,991.69
2018-05-04T06:56:25.186Z,991.66
2018-05-04T06:57:25.192Z,991.72
2018-05-04T06:58:25.187Z,991.68
2018-05-04T06:59:25.281Z,991.62
2018-05-04T07:00:25.191Z,991.6
2018-05-04T07:01:25.193Z,991.62
2018-05-04T07:02:25.197Z,991.58
2018-05-04T07:03:25.197Z,991.52
2018-05-04T07:04:25.215Z,991.56
2018-05-04T07:05:25.204Z,991.57
2018-05-04T07:06:25.207Z,991.57
2018-05-04T07:07:25.209Z,991.55
2018-05-04T07:08:26.015Z,991.57
2018-05-04T07:09:25.218Z,991.53
2018-05-04T07:10:25.242Z,991.55
2018-05-04T07:11:25.235Z,991.49
2018-05-04T07:12:25.228Z,991.55
2018-05-04T07:13:25.248Z,991.55
2018-05-04T07:14:25.236Z,991.56
2018-05-04T07:15:25.237Z,991.58
2018-05-04T07:16:25.243Z,991.6
2018-05-04T07:17:25.247Z,991.69
2018-05-04T07:18:25.249Z,991.71
2018-05-04T07:19:25.260Z,991.67
2018-05-04T07:20:25.255Z,991.67
2018-05-04T07:21:25.260Z,991.73
2018-05-04T07:22:25.262Z,991.74
2018-05-04T07:23:25.265Z,991.72
2018-05-04T07:24:25.268Z,991.73
2018-05-04T07:25:25.271Z,991.66
2018-05-04T07:26:25.276Z,991.69
2018-05-04T07:27:25.277Z,991.68
2018-05-04T07:28:25.280Z,991.66
2018-05-04T07:29:25.299Z,991.69
2018-05-04T07:30:25.288Z,991.62
2018-05-04T07:31:25.291Z,991.64
2018-05-04T07:32:25.310Z,991.49
2018-05-04T07:33:25.369Z,991.47
2018-05-04T07:34:25.395Z,991.49
2018-05-04T07:35:25.306Z,991.52
2018-05-04T07:36:25.312Z,991.54
2018-05-04T07:37:25.313Z,991.54
2018-05-04T07:38:25.317Z,991.56
2018-05-04T07:39:25.319Z,991.64
2018-05-04T07:40:25.325Z,991.6
2018-05-04T07:41:25.326Z,991.55
2018-05-04T07:42:25.331Z,991.58
2018-05-04T07:43:25.334Z,991.56
2018-05-04T07:44:25.338Z,991.57
2018-05-04T07:45:25.345Z,991.67
2018-05-04T07:46:25.354Z,991.63
2018-05-04T07:47:25.348Z,991.73
2018-05-04T07:48:25.355Z,991.7
2018-05-04T07:49:25.360Z,991.66
2018-05-04T07:50:25.368Z,991.67
2018-05-04T07:51:25.364Z,991.68
2018-05-04T07:52:25.372Z,991.64
2018-05-04T07:53:25.374Z,991.55
2018-05-04T07:54:25.375Z,991.57
2018-05-04T07:55:25.381Z,991.64
2018-05-04T07:56:25.389Z,991.68
2018-05-04T07:57:25.396Z,991.66
2018-05-04T07:58:25.394Z,991.72
2018-05-04T07:59:25.404Z,991.65
2018-05-04T08:00:25.403Z,991.61
2018-05-04T08:01:25.408Z,991.65
2018-05-04T08:02:25.413Z,991.59
2018-05-04T08:03:25.416Z,991.55
2018-05-04T08:04:25.430Z,991.61
2018-05-04T08:05:25.428Z,991.6
2018-05-04T08:06:25.437Z,991.62
2018-05-04T08:07:25.432Z,991.66
2018-05-04T08:08:25.498Z,991.64
2018-05-04T08:09:25.464Z,991.66
2018-05-04T08:10:25.446Z,991.65
2018-05-04T08:11:25.448Z,991.67
2018-05-04T08:12:25.452Z,991.69
2018-05-04T08:13:25.456Z,991.68
2018-05-04T08:14:25.459Z,991.63
2018-05-04T08:15:25.465Z,991.69
2018-05-04T08:16:25.467Z,991.67
2018-05-04T08:17:25.470Z,991.68
2018-05-04T08:18:25.476Z,991.72
2018-05-04T08:19:25.495Z,991.68
2018-05-04T08:20:25.480Z,991.68
2018-05-04T08:21:25.483Z,991.67
2018-05-04T08:22:25.488Z,991.67
2018-05-04T08:23:25.498Z,991.71
2018-05-04T08:24:25.492Z,991.76
2018-05-04T08:25:25.496Z,991.76
2018-05-04T08:26:25.500Z,991.73
2018-05-04T08:27:25.504Z,991.68
2018-05-04T08:28:25.503Z,991.73
2018-05-04T08:29:25.506Z,991.69
2018-05-04T08:30:25.509Z,991.73
2018-05-04T08:31:25.510Z,991.75
2018-05-04T08:32:25.516Z,991.75
2018-05-04T08:33:25.517Z,991.82
2018-05-04T08:34:25.530Z,991.67
2018-05-04T08:35:25.579Z,991.76
2018-05-04T08:36:25.528Z,991.74
2018-05-04T08:37:25.533Z,991.76
2018-05-04T08:38:25.555Z,991.7
2018-05-04T08:39:25.541Z,991.74
2018-05-04T08:40:25.568Z,991.65
2018-05-04T08:41:25.553Z,991.6
2018-05-04T08:42:25.556Z,991.62
2018-05-04T08:43:25.558Z,991.57
2018-05-04T08:44:25.566Z,991.56
2018-05-04T08:45:25.567Z,991.42
2018-05-04T08:46:25.571Z,991.46
2018-05-04T08:47:25.577Z,991.46
2018-05-04T08:48:25.581Z,991.51
2018-05-04T08:49:25.596Z,991.49
2018-05-04T08:50:25.591Z,991.55
2018-05-04T08:51:25.597Z,991.48
2018-05-04T08:52:25.600Z,991.51
2018-05-04T08:53:25.606Z,991.54
2018-05-04T08:54:25.715Z,991.56
2018-05-04T08:55:25.621Z,991.52
2018-05-04T08:56:25.621Z,991.53
2018-05-04T08:57:25.633Z,991.56
2018-05-04T08:58:25.629Z,991.49
2018-05-04T08:59:25.641Z,991.43
2018-05-04T09:00:25.634Z,991.47
2018-05-04T09:01:25.638Z,991.44
2018-05-04T09:02:25.643Z,991.45
2018-05-04T09:03:25.648Z,991.56
2018-05-04T09:04:25.652Z,991.58
2018-05-04T09:05:25.803Z,991.59
2018-05-04T09:06:25.661Z,991.59
2018-05-04T09:07:25.665Z,991.57
2018-05-04T09:08:25.669Z,991.55
2018-05-04T09:09:25.679Z,991.53
2018-05-04T09:10:25.679Z,991.51
2018-05-04T09:11:25.681Z,991.51
2018-05-04T09:12:25.698Z,991.46
2018-05-04T09:13:25.705Z,991.45
2018-05-04T09:14:25.726Z,991.53
2018-05-04T09:15:25.697Z,991.49
2018-05-04T09:16:25.699Z,991.43
2018-05-04T09:17:25.704Z,991.51
2018-05-04T09:18:25.707Z,991.48
2018-05-04T09:19:25.711Z,991.53
2018-05-04T09:20:25.715Z,991.44
2018-05-04T09:21:25.719Z,991.46
2018-05-04T09:22:25.722Z,991.41
2018-05-04T09:23:25.735Z,991.41
2018-05-04T09:24:25.733Z,991.46
2018-05-04T09:25:25.767Z,991.43
2018-05-04T09:26:25.734Z,991.37
2018-05-04T09:27:25.738Z,991.4
2018-05-04T09:28:25.743Z,991.38
2018-05-04T09:29:25.751Z,991.38
2018-05-04T09:30:25.748Z,991.34
2018-05-04T09:31:25.762Z,991.38
2018-05-04T09:32:25.758Z,991.3
2018-05-04T09:33:25.761Z,991.39
2018-05-04T09:34:25.763Z,991.39
2018-05-04T09:35:25.774Z,991.37
2018-05-04T09:36:25.765Z,991.35
2018-05-04T09:37:25.776Z,991.37
2018-05-04T09:38:25.773Z,991.37
2018-05-04T09:39:25.777Z,991.38
2018-05-04T09:40:25.787Z,991.36
2018-05-04T09:41:25.784Z,991.35
2018-05-04T09:42:25.784Z,991.37
2018-05-04T09:43:25.849Z,991.42
2018-05-04T09:44:25.796Z,991.51
2018-05-04T09:45:25.801Z,991.49
2018-05-04T09:46:25.803Z,991.45
2018-05-04T09:47:25.802Z,991.41
2018-05-04T09:48:25.808Z,991.47
2018-05-04T09:49:25.806Z,991.46
2018-05-04T09:50:25.811Z,991.46
2018-05-04T09:51:25.813Z,991.48
2018-05-04T09:52:25.818Z,991.47
2018-05-04T09:53:25.821Z,991.5
2018-05-04T09:54:25.825Z,991.47
2018-05-04T09:55:25.829Z,991.47
2018-05-04T09:56:25.831Z,991.4
2018-05-04T09:57:25.834Z,991.45
2018-05-04T09:58:25.837Z,991.44
2018-05-04T09:59:25.840Z,991.45
2018-05-04T10:00:25.855Z,991.44
2018-05-04T10:01:25.856Z,991.41
2018-05-04T10:02:25.863Z,991.35
2018-05-04T10:03:25.863Z,991.37
2018-05-04T10:04:25.862Z,991.34
2018-05-04T10:05:25.872Z,991.29
2018-05-04T10:06:25.874Z,991.23
2018-05-04T10:07:25.869Z,991.17
2018-05-04T10:08:25.879Z,991.19
2018-05-04T10:09:25.878Z,991.09
2018-05-04T10:10:25.887Z,991.08
2018-05-04T10:11:25.888Z,991.1
2018-05-04T10:12:25.893Z,991.12
2018-05-04T10:13:25.893Z,991.15
2018-05-04T10:14:25.892Z,991.1
2018-05-04T10:15:25.897Z,991.09
2018-05-04T10:16:25.899Z,991.11
2018-05-04T10:17:25.907Z,991.05
2018-05-04T10:18:25.908Z,991.09
2018-05-04T10:19:25.926Z,991.09
2018-05-04T10:20:25.928Z,991.04
2018-05-04T10:21:25.926Z,991.08
2018-05-04T10:52:47.384Z,990.98
2018-05-04T10:53:47.230Z,990.96
2018-05-04T10:54:47.229Z,990.97
2018-05-04T10:55:47.234Z,991.11
2018-05-04T10:56:47.231Z,991.06
2018-05-04T10:57:47.227Z,991.03
2018-05-04T10:58:47.229Z,991.03
2018-05-04T10:59:47.228Z,991.1
2018-05-04T11:00:47.236Z,990.99
2018-05-04T11:01:47.233Z,990.97
2018-05-04T11:02:47.233Z,990.98
2018-05-04T11:03:47.236Z,990.98
2018-05-04T11:04:47.238Z,991
2018-05-04T11:05:47.242Z,991.11
2018-05-04T11:06:47.242Z,991.17
2018-05-04T11:07:47.246Z,991.08
2018-05-04T11:08:47.248Z,991.02
2018-05-04T11:09:47.251Z,991.12
2018-05-04T11:10:47.253Z,991.17
2018-05-04T11:11:47.262Z,991.05
2018-05-04T11:12:47.262Z,991.04
2018-05-04T11:13:47.315Z,991.04
2018-05-04T11:14:47.265Z,991.07
2018-05-04T11:15:47.269Z,991.11
2018-05-04T11:16:47.271Z,991.13
2018-05-04T11:17:48.074Z,991.07
2018-05-04T11:18:47.281Z,991.12
2018-05-04T11:19:47.281Z,991.08
2018-05-04T11:20:47.284Z,991.03
2018-05-04T11:21:47.291Z,991.04
2018-05-04T11:22:47.294Z,991.09
2018-05-04T11:23:47.294Z,991.06
2018-05-04T11:24:47.297Z,991.05
2018-05-04T11:25:47.301Z,991.02
2018-05-04T11:26:47.306Z,991.02
2018-05-04T11:27:47.314Z,990.93
2018-05-04T11:28:47.314Z,990.93
2018-05-04T11:29:47.318Z,990.89
2018-05-04T11:30:47.324Z,990.92
2018-05-04T11:31:47.326Z,990.9
2018-05-04T11:32:47.328Z,990.89
2018-05-04T11:33:47.333Z,990.92
2018-05-04T11:34:47.340Z,990.93
2018-05-04T11:35:47.340Z,990.93
2018-05-04T11:36:47.343Z,990.93
2018-05-04T11:37:47.348Z,990.95
2018-05-04T11:38:47.431Z,990.98
2018-05-04T11:39:47.356Z,990.9
2018-05-04T11:40:47.360Z,990.94
2018-05-04T11:41:47.364Z,990.94
2018-05-04T11:42:47.426Z,991.02
2018-05-04T11:43:47.370Z,990.87
2018-05-04T11:44:47.374Z,990.93
2018-05-04T11:45:47.384Z,990.94
2018-05-04T11:46:47.433Z,990.99
2018-05-04T11:47:47.386Z,990.95
2018-05-04T11:48:47.394Z,990.96
2018-05-04T11:49:47.392Z,990.99
2018-05-04T11:50:47.397Z,990.98
2018-05-04T11:51:47.401Z,990.95
2018-05-04T11:52:47.404Z,990.95
2018-05-04T11:53:47.408Z,990.96
2018-05-04T11:54:47.412Z,990.98
2018-05-04T11:55:47.415Z,991.02
2018-05-04T11:56:47.419Z,991
2018-05-04T11:57:47.423Z,990.99
2018-05-04T11:58:47.426Z,990.99
2018-05-04T11:59:47.431Z,990.96
2018-05-04T12:00:47.442Z,991.02
2018-05-04T12:01:47.438Z,991.03
2018-05-04T12:02:47.456Z,990.97
2018-05-04T12:03:47.451Z,990.95
2018-05-04T12:04:47.454Z,990.94
2018-05-04T12:05:47.459Z,990.9
2018-05-04T12:06:47.459Z,990.9
2018-05-04T12:07:47.465Z,990.98
2018-05-04T12:08:47.487Z,990.93
2018-05-04T12:09:47.471Z,991
2018-05-04T12:10:47.593Z,991.02
2018-05-04T12:11:47.480Z,991
2018-05-04T12:12:47.486Z,991.02
2018-05-04T12:13:47.488Z,991.02
2018-05-04T12:14:47.491Z,991
2018-05-04T12:15:47.561Z,991.06
2018-05-04T12:16:47.499Z,990.96
2018-05-04T12:17:47.524Z,990.98
2018-05-04T12:18:47.508Z,990.97
2018-05-04T12:19:47.512Z,991.01
2018-05-04T12:20:47.525Z,990.97
2018-05-04T12:21:47.533Z,990.94
2018-05-04T12:22:47.561Z,990.97
2018-05-04T12:23:47.532Z,990.91
2018-05-04T12:24:47.539Z,990.9
2018-05-04T12:25:47.541Z,990.87
2018-05-04T12:26:47.557Z,990.84
2018-05-04T12:27:47.555Z,990.8
2018-05-04T12:28:47.560Z,990.83
2018-05-04T12:29:47.565Z,990.78
2018-05-04T12:30:47.564Z,990.77
2018-05-04T12:31:47.659Z,990.8
2018-05-04T12:32:47.573Z,990.79
2018-05-04T12:33:47.580Z,990.78
2018-05-04T12:34:47.606Z,990.88
2018-05-04T12:35:47.589Z,990.82
2018-05-04T12:36:47.593Z,990.82
2018-05-04T12:37:47.599Z,990.85
2018-05-04T12:38:47.602Z,990.8
2018-05-04T12:39:47.608Z,990.84
2018-05-04T12:40:47.612Z,990.84
2018-05-04T12:41:47.621Z,990.76
2018-05-04T12:42:47.623Z,990.73
2018-05-04T12:43:47.627Z,990.71
2018-05-04T12:44:47.632Z,990.78
2018-05-04T12:45:47.700Z,990.77
2018-05-04T12:46:47.640Z,990.73
2018-05-04T12:47:47.649Z,990.73
2018-05-04T12:48:47.649Z,990.8
2018-05-04T12:49:47.659Z,990.76
2018-05-04T12:50:47.680Z,990.72
2018-05-04T12:51:47.664Z,990.66
2018-05-04T12:52:47.668Z,990.71
2018-05-04T12:53:47.755Z,990.7
2018-05-04T12:54:47.679Z,990.73
2018-05-04T12:55:47.686Z,990.68
2018-05-04T12:56:47.686Z,990.74
2018-05-04T12:57:47.692Z,990.74
2018-05-04T12:58:47.698Z,990.65
2018-05-04T12:59:47.699Z,990.65
2018-05-04T13:00:47.734Z,990.65
2018-05-04T13:01:47.742Z,990.65
2018-05-04T13:02:47.715Z,990.65
2018-05-04T13:03:47.718Z,990.7
2018-05-04T13:04:47.722Z,990.61
2018-05-04T13:05:47.730Z,990.66
2018-05-04T13:06:47.732Z,990.67
2018-05-04T13:07:47.748Z,990.65
2018-05-04T13:08:47.742Z,990.68
2018-05-04T13:09:47.745Z,990.65
2018-05-04T13:10:47.751Z,990.63